Alton, IA (51003)

4:54 AM CDT on July 24, 2016 (GMT -0500)
NWC Rec Center | | Change Station

Elev 1411 ft 43.00 °N, 96.06 °W | Updated 3 seconds ago

Clear
Clear
72.8 °F
Feels Like 72.8 °F
N
3.7
Wind Variable Wind from WSW
Gusts 3.7 mph

Today
High -- | Low -- °F
--% Chance of Precip.
Yesterday
High -- | Low -- °F
Precip. -- in
Pressure 29.89 in
Visibility 10.0 miles
Clouds Clear
Dew Point 72 °F
Humidity 96%
Rainfall 0.00 in
Snow Depth Not available.
6:07 AM 8:53 PM
Waning Gibbous, 77% visible
METAR KLRJ 240935Z AUTO 36007KT 10SM CLR 24/20 A2989 RMK AO2
Pressure 29.89 in
Visibility 10.0 miles
Clouds Clear
Dew Point 72 °F
Humidity 96%
Rainfall 0.00 in
Snow Depth Not available.
6:07 AM 8:53 PM
Waning Gibbous, 77% visible
METAR KLRJ 240935Z AUTO 36007KT 10SM CLR 24/20 A2989 RMK AO2

10-Day Weather Forecast

Almanac

Astronomy

Jul. 24, 2016 Rise Set
Actual Time
Civil Twilight
Nautical Twilight
Astronomical Twilight
Moon
Length of Visible Light
Length of Day
Tomorrow will be .
, % of the Moon is Illuminated

Today's Extremes

State Highs State Lows

Community

WunderPhotos

Upload Photos

1,927,042 photos uploaded!

WunderBlog® & News

Nearby

Air Quality

  Air Quality AQ Index Pollutant
Not available.

Snow Depth

Station Depth Elevation

Earthquake Activity

City Distance Mag. Time & Date
Minimum magnitude displayed is 2.5.

Coastal Water Temperatures

Place Temperature

Stations

Nearby Weather Stations

Station Location Temp. Windchill Dew Point Humidity Wind Precip. Elev Updated Type
                   

Watches & Warnings

There are currently no watches in effect.